SWA3081 KISP-KBWI
Flight info
| Callsign | SWA3081 |
|---|---|
| Flight time | 0h 50m |
| Altitude | 28000 |
| Route | BEADS EMJAY Q167 ZIZZI KNUKK ATR LAFLN MIIDY3 |
| Aircraft | B737/M-SADE2E3GIJ4RWZ/LB1D1 |
Departure
| Time | 2026-05-08 17:51 |
|---|---|
| Airport | Long Island MacArthur Airport (KISP) |
Arrival
| Time | 2026-05-08 18:42 |
|---|---|
| Airport | Baltimore/Washington International Thurgood Marshall Airport (KBWI) |
| Time | Latitude | Longitude | Altitude | Speed | Heading |
|---|---|---|---|---|---|
| 2026-05-08 17:35 | 40.79004 | -73.09448 | 80 ft | 0 kts | 225° |
| 2026-05-08 17:43 | 40.79004 | -73.09447 | 80 ft | 0 kts | 225° |
| 2026-05-08 17:44 | 40.79004 | -73.09448 | 80 ft | 0 kts | 225° |
| 2026-05-08 17:44 | 40.79009 | -73.09441 | 80 ft | 2 kts | 228° |
| 2026-05-08 17:45 | 40.79019 | -73.09426 | 80 ft | 2 kts | 226° |
| 2026-05-08 17:45 | 40.79030 | -73.09411 | 80 ft | 2 kts | 227° |
| 2026-05-08 17:45 | 40.79040 | -73.09397 | 80 ft | 2 kts | 226° |
| 2026-05-08 17:45 | 40.79045 | -73.09390 | 80 ft | 1 kts | 226° |
| 2026-05-08 17:46 | 40.79046 | -73.09389 | 80 ft | 0 kts | 226° |
| 2026-05-08 17:47 | 40.79044 | -73.09392 | 80 ft | 1 kts | 233° |
| 2026-05-08 17:47 | 40.79055 | -73.09419 | 80 ft | 6 kts | 315° |
| 2026-05-08 17:47 | 40.79107 | -73.09486 | 80 ft | 13 kts | 317° |
| 2026-05-08 17:47 | 40.79210 | -73.09453 | 81 ft | 19 kts | 14° |
| 2026-05-08 17:48 | 40.79366 | -73.09472 | 84 ft | 25 kts | 0° |
| 2026-05-08 17:48 | 40.79565 | -73.09470 | 87 ft | 32 kts | 0° |
| 2026-05-08 17:48 | 40.79810 | -73.09467 | 90 ft | 38 kts | 359° |
| 2026-05-08 17:48 | 40.80069 | -73.09467 | 98 ft | 18 kts | 1° |
| 2026-05-08 17:49 | 40.80084 | -73.09467 | 98 ft | 0 kts | 360° |
| 2026-05-08 17:49 | 40.80114 | -73.09467 | 98 ft | 12 kts | 357° |
| 2026-05-08 17:49 | 40.80146 | -73.09556 | 98 ft | 4 kts | 224° |
| 2026-05-08 17:50 | 40.80146 | -73.09557 | 98 ft | 0 kts | 224° |
| 2026-05-08 17:50 | 40.80104 | -73.09611 | 96 ft | 36 kts | 225° |
| 2026-05-08 17:50 | 40.79746 | -73.10085 | 90 ft | 107 kts | 225° |
| 2026-05-08 17:51 | 40.79099 | -73.10944 | 260 ft | 147 kts | 226° |
| 2026-05-08 17:51 | 40.78372 | -73.11804 | 1018 ft | 145 kts | 219° |
| 2026-05-08 17:51 | 40.77329 | -73.12106 | 1494 ft | 174 kts | 172° |
| 2026-05-08 17:51 | 40.76230 | -73.11262 | 2081 ft | 198 kts | 138° |
| 2026-05-08 17:52 | 40.75515 | -73.09628 | 2690 ft | 217 kts | 106° |
| 2026-05-08 17:52 | 40.75362 | -73.07582 | 3304 ft | 233 kts | 91° |
| 2026-05-08 17:52 | 40.75277 | -73.03038 | 4534 ft | 266 kts | 92° |
| 2026-05-08 17:53 | 40.75195 | -73.00585 | 5291 ft | 275 kts | 92° |
| 2026-05-08 17:53 | 40.75104 | -72.98064 | 6177 ft | 278 kts | 93° |
| 2026-05-08 17:53 | 40.75012 | -72.95504 | 6988 ft | 284 kts | 92° |
| 2026-05-08 17:53 | 40.74920 | -72.92900 | 7820 ft | 288 kts | 92° |
| 2026-05-08 17:54 | 40.74826 | -72.90256 | 8429 ft | 296 kts | 91° |
| 2026-05-08 17:54 | 40.74717 | -72.87548 | 8219 ft | 297 kts | 94° |
| 2026-05-08 17:54 | 40.74439 | -72.84894 | 8024 ft | 286 kts | 103° |
| 2026-05-08 17:54 | 40.73793 | -72.82427 | 7939 ft | 285 kts | 116° |
| 2026-05-08 17:55 | 40.72832 | -72.80145 | 7934 ft | 286 kts | 125° |
| 2026-05-08 17:55 | 40.71680 | -72.78037 | 7936 ft | 284 kts | 133° |
| 2026-05-08 17:55 | 40.70300 | -72.76229 | 7934 ft | 280 kts | 145° |
| 2026-05-08 17:55 | 40.68683 | -72.74776 | 7938 ft | 279 kts | 155° |
| 2026-05-08 17:56 | 40.66982 | -72.73641 | 7947 ft | 273 kts | 162° |
| 2026-05-08 17:56 | 40.65183 | -72.72827 | 7941 ft | 269 kts | 172° |
| 2026-05-08 17:56 | 40.63359 | -72.72459 | 7972 ft | 263 kts | 182° |
| 2026-05-08 17:56 | 40.61536 | -72.72420 | 7979 ft | 259 kts | 189° |
| 2026-05-08 17:57 | 40.59759 | -72.72662 | 7965 ft | 255 kts | 198° |
| 2026-05-08 17:57 | 40.58069 | -72.73270 | 7953 ft | 250 kts | 206° |
| 2026-05-08 17:57 | 40.56465 | -72.74180 | 7953 ft | 259 kts | 213° |
| 2026-05-08 17:57 | 40.54881 | -72.75388 | 7953 ft | 264 kts | 219° |
| 2026-05-08 17:58 | 40.53397 | -72.76784 | 7958 ft | 262 kts | 224° |
| 2026-05-08 17:58 | 40.52000 | -72.78338 | 7951 ft | 260 kts | 228° |
| 2026-05-08 17:58 | 40.50672 | -72.79924 | 7953 ft | 260 kts | 229° |
| 2026-05-08 17:58 | 40.49328 | -72.81513 | 7957 ft | 259 kts | 228° |
| 2026-05-08 17:59 | 40.47964 | -72.83080 | 7959 ft | 260 kts | 227° |
| 2026-05-08 17:59 | 40.46574 | -72.84654 | 8279 ft | 274 kts | 226° |
| 2026-05-08 17:59 | 40.45148 | -72.86247 | 9424 ft | 267 kts | 227° |
| 2026-05-08 17:59 | 40.43742 | -72.87820 | 10285 ft | 271 kts | 227° |
| 2026-05-08 18:00 | 40.42325 | -72.89409 | 11210 ft | 270 kts | 228° |
| 2026-05-08 18:00 | 40.39526 | -72.92542 | 12899 ft | 273 kts | 229° |
| 2026-05-08 18:00 | 40.38042 | -72.94223 | 13396 ft | 290 kts | 228° |
| 2026-05-08 18:01 | 40.36482 | -72.95982 | 14040 ft | 300 kts | 228° |
| 2026-05-08 18:01 | 40.34900 | -72.97745 | 14873 ft | 302 kts | 228° |
| 2026-05-08 18:01 | 40.33299 | -72.99522 | 15716 ft | 304 kts | 228° |
| 2026-05-08 18:01 | 40.31692 | -73.01308 | 16532 ft | 305 kts | 228° |
| 2026-05-08 18:02 | 40.30085 | -73.03099 | 17288 ft | 308 kts | 229° |
| 2026-05-08 18:02 | 40.28458 | -73.04913 | 18051 ft | 311 kts | 228° |
| 2026-05-08 18:02 | 40.26825 | -73.06731 | 18846 ft | 311 kts | 229° |
| 2026-05-08 18:02 | 40.25160 | -73.08589 | 19554 ft | 314 kts | 229° |
| 2026-05-08 18:03 | 40.23510 | -73.10426 | 20306 ft | 314 kts | 229° |
| 2026-05-08 18:03 | 40.21843 | -73.12282 | 20948 ft | 318 kts | 230° |
| 2026-05-08 18:03 | 40.20176 | -73.14135 | 21666 ft | 318 kts | 230° |
| 2026-05-08 18:03 | 40.18479 | -73.16018 | 22279 ft | 321 kts | 230° |
| 2026-05-08 18:04 | 40.16796 | -73.17888 | 22934 ft | 322 kts | 230° |
| 2026-05-08 18:04 | 40.15083 | -73.19788 | 23517 ft | 324 kts | 230° |
| 2026-05-08 18:04 | 40.13351 | -73.21711 | 24064 ft | 328 kts | 231° |
| 2026-05-08 18:04 | 40.11612 | -73.23638 | 24676 ft | 329 kts | 231° |
| 2026-05-08 18:05 | 40.09877 | -73.25557 | 25227 ft | 332 kts | 231° |
| 2026-05-08 18:05 | 40.08123 | -73.27501 | 25843 ft | 331 kts | 231° |
| 2026-05-08 18:05 | 40.06382 | -73.29443 | 26560 ft | 328 kts | 231° |
| 2026-05-08 18:05 | 40.04649 | -73.31384 | 27109 ft | 329 kts | 231° |
| 2026-05-08 18:06 | 40.02920 | -73.33329 | 27540 ft | 332 kts | 231° |
| 2026-05-08 18:06 | 40.01155 | -73.35317 | 27910 ft | 338 kts | 231° |
| 2026-05-08 18:06 | 39.99368 | -73.37332 | 27973 ft | 349 kts | 231° |
| 2026-05-08 18:06 | 39.97510 | -73.39427 | 27979 ft | 361 kts | 231° |
| 2026-05-08 18:07 | 39.95571 | -73.41608 | 27977 ft | 373 kts | 230° |
| 2026-05-08 18:07 | 39.93545 | -73.43880 | 27972 ft | 385 kts | 230° |
| 2026-05-08 18:07 | 39.91490 | -73.46176 | 27968 ft | 396 kts | 230° |
| 2026-05-08 18:07 | 39.89355 | -73.48557 | 27965 ft | 407 kts | 229° |
| 2026-05-08 18:08 | 39.87204 | -73.50949 | 27958 ft | 410 kts | 229° |
| 2026-05-08 18:08 | 39.85045 | -73.53336 | 27960 ft | 410 kts | 229° |
| 2026-05-08 18:08 | 39.82845 | -73.55768 | 27961 ft | 410 kts | 229° |
| 2026-05-08 18:08 | 39.80698 | -73.58144 | 27966 ft | 411 kts | 229° |
| 2026-05-08 18:09 | 39.78514 | -73.60563 | 27964 ft | 409 kts | 230° |
| 2026-05-08 18:09 | 39.76363 | -73.62946 | 27962 ft | 409 kts | 229° |
| 2026-05-08 18:09 | 39.74180 | -73.65369 | 27967 ft | 411 kts | 229° |
| 2026-05-08 18:09 | 39.71999 | -73.67789 | 27967 ft | 411 kts | 229° |
| 2026-05-08 18:10 | 39.69826 | -73.70198 | 27963 ft | 410 kts | 229° |
| 2026-05-08 18:10 | 39.67650 | -73.72608 | 27967 ft | 410 kts | 229° |
| 2026-05-08 18:10 | 39.65478 | -73.75016 | 27970 ft | 411 kts | 229° |
| 2026-05-08 18:10 | 39.63299 | -73.77428 | 27970 ft | 413 kts | 229° |
| 2026-05-08 18:11 | 39.61127 | -73.79827 | 27966 ft | 410 kts | 229° |
| 2026-05-08 18:11 | 39.58954 | -73.82227 | 27969 ft | 413 kts | 229° |
| 2026-05-08 18:11 | 39.56765 | -73.84641 | 27976 ft | 409 kts | 229° |
| 2026-05-08 18:11 | 39.54621 | -73.87003 | 27981 ft | 410 kts | 229° |
| 2026-05-08 18:12 | 39.52444 | -73.89401 | 27983 ft | 411 kts | 229° |
| 2026-05-08 18:12 | 39.50253 | -73.91811 | 27980 ft | 410 kts | 229° |
| 2026-05-08 18:12 | 39.48104 | -73.94175 | 27979 ft | 411 kts | 229° |
| 2026-05-08 18:12 | 39.45935 | -73.96560 | 27977 ft | 410 kts | 229° |
| 2026-05-08 18:13 | 39.43737 | -73.98972 | 27978 ft | 410 kts | 229° |
| 2026-05-08 18:13 | 39.41572 | -74.01345 | 27984 ft | 409 kts | 229° |
| 2026-05-08 18:13 | 39.39407 | -74.03715 | 27987 ft | 411 kts | 229° |
| 2026-05-08 18:13 | 39.37237 | -74.06088 | 27987 ft | 409 kts | 229° |
| 2026-05-08 18:14 | 39.35072 | -74.08456 | 27985 ft | 412 kts | 229° |
| 2026-05-08 18:14 | 39.32868 | -74.10861 | 27987 ft | 410 kts | 229° |
| 2026-05-08 18:14 | 39.30690 | -74.13237 | 27989 ft | 410 kts | 229° |
| 2026-05-08 18:14 | 39.28508 | -74.15614 | 27995 ft | 408 kts | 229° |
| 2026-05-08 18:15 | 39.26343 | -74.17972 | 27996 ft | 411 kts | 229° |
| 2026-05-08 18:15 | 39.24178 | -74.20332 | 27994 ft | 409 kts | 229° |
| 2026-05-08 18:15 | 39.22006 | -74.22688 | 27993 ft | 407 kts | 229° |
| 2026-05-08 18:15 | 39.19817 | -74.25065 | 27998 ft | 410 kts | 229° |
| 2026-05-08 18:16 | 39.17643 | -74.27427 | 27999 ft | 409 kts | 229° |
| 2026-05-08 18:16 | 39.15497 | -74.29755 | 27999 ft | 410 kts | 229° |
| 2026-05-08 18:16 | 39.11144 | -74.34469 | 28002 ft | 407 kts | 229° |
| 2026-05-08 18:17 | 39.06769 | -74.39205 | 28004 ft | 415 kts | 229° |
| 2026-05-08 18:17 | 39.02361 | -74.43965 | 28008 ft | 413 kts | 230° |
| 2026-05-08 18:18 | 38.98021 | -74.48736 | 28001 ft | 407 kts | 232° |
| 2026-05-08 18:18 | 38.96105 | -74.51338 | 27999 ft | 401 kts | 239° |
| 2026-05-08 18:18 | 38.94560 | -74.54283 | 28001 ft | 392 kts | 248° |
| 2026-05-08 18:19 | 38.92571 | -74.60628 | 28011 ft | 381 kts | 258° |
| 2026-05-08 18:19 | 38.91219 | -74.67177 | 28005 ft | 381 kts | 261° |
| 2026-05-08 18:20 | 38.89966 | -74.73757 | 28013 ft | 380 kts | 260° |
| 2026-05-08 18:20 | 38.88726 | -74.80306 | 28014 ft | 380 kts | 261° |
| 2026-05-08 18:21 | 38.88114 | -74.83591 | 28000 ft | 378 kts | 261° |
| 2026-05-08 18:21 | 38.87505 | -74.86863 | 28010 ft | 378 kts | 261° |
| 2026-05-08 18:21 | 38.86276 | -74.93414 | 28010 ft | 377 kts | 261° |
| 2026-05-08 18:22 | 38.85036 | -74.99964 | 28002 ft | 378 kts | 261° |
| 2026-05-08 18:22 | 38.83785 | -75.06556 | 28014 ft | 392 kts | 261° |
| 2026-05-08 18:23 | 38.83139 | -75.09952 | 27819 ft | 393 kts | 261° |
| 2026-05-08 18:23 | 38.82492 | -75.13316 | 27305 ft | 386 kts | 261° |
| 2026-05-08 18:23 | 38.81857 | -75.16596 | 26850 ft | 375 kts | 260° |
| 2026-05-08 18:23 | 38.81260 | -75.19820 | 26098 ft | 374 kts | 263° |
| 2026-05-08 18:24 | 38.80831 | -75.23093 | 25021 ft | 376 kts | 266° |
| 2026-05-08 18:24 | 38.80558 | -75.26406 | 23947 ft | 379 kts | 268° |
| 2026-05-08 18:24 | 38.80350 | -75.29761 | 22849 ft | 382 kts | 269° |
| 2026-05-08 18:24 | 38.80164 | -75.33101 | 22090 ft | 376 kts | 269° |
| 2026-05-08 18:25 | 38.79978 | -75.36440 | 21396 ft | 370 kts | 269° |
| 2026-05-08 18:25 | 38.79794 | -75.39665 | 20711 ft | 365 kts | 268° |
| 2026-05-08 18:25 | 38.79608 | -75.42862 | 19985 ft | 363 kts | 268° |
| 2026-05-08 18:25 | 38.79414 | -75.46137 | 19239 ft | 369 kts | 268° |
| 2026-05-08 18:26 | 38.79217 | -75.49380 | 18497 ft | 367 kts | 268° |
| 2026-05-08 18:26 | 38.79017 | -75.52608 | 17724 ft | 364 kts | 268° |
| 2026-05-08 18:26 | 38.78814 | -75.55811 | 16997 ft | 359 kts | 268° |
| 2026-05-08 18:26 | 38.78612 | -75.58958 | 16264 ft | 356 kts | 268° |
| 2026-05-08 18:27 | 38.78410 | -75.62111 | 15491 ft | 355 kts | 269° |
| 2026-05-08 18:27 | 38.78275 | -75.64201 | 15010 ft | 357 kts | 268° |
| 2026-05-08 18:27 | 38.78003 | -75.68394 | 14086 ft | 355 kts | 268° |
| 2026-05-08 18:27 | 38.77797 | -75.71537 | 13390 ft | 351 kts | 268° |
| 2026-05-08 18:28 | 38.77593 | -75.74611 | 12708 ft | 347 kts | 269° |
| 2026-05-08 18:28 | 38.77391 | -75.77644 | 12224 ft | 333 kts | 268° |
| 2026-05-08 18:28 | 38.77197 | -75.80479 | 11995 ft | 310 kts | 268° |
| 2026-05-08 18:28 | 38.77014 | -75.83182 | 11895 ft | 307 kts | 269° |
| 2026-05-08 18:29 | 38.76837 | -75.85936 | 11716 ft | 306 kts | 269° |
| 2026-05-08 18:29 | 38.76664 | -75.88545 | 11547 ft | 287 kts | 268° |
| 2026-05-08 18:29 | 38.76497 | -75.91002 | 11410 ft | 267 kts | 268° |
| 2026-05-08 18:29 | 38.76341 | -75.93340 | 11262 ft | 269 kts | 269° |
| 2026-05-08 18:30 | 38.76185 | -75.95724 | 11056 ft | 263 kts | 269° |
| 2026-05-08 18:30 | 38.76031 | -75.97977 | 11000 ft | 247 kts | 269° |
| 2026-05-08 18:30 | 38.75883 | -76.00156 | 10774 ft | 248 kts | 269° |
| 2026-05-08 18:30 | 38.75735 | -76.02386 | 10144 ft | 257 kts | 268° |
| 2026-05-08 18:31 | 38.75590 | -76.04698 | 9657 ft | 258 kts | 270° |
| 2026-05-08 18:31 | 38.75706 | -76.06950 | 9263 ft | 254 kts | 285° |
| 2026-05-08 18:31 | 38.76461 | -76.08973 | 8820 ft | 254 kts | 302° |
| 2026-05-08 18:31 | 38.77462 | -76.10823 | 8391 ft | 255 kts | 304° |
| 2026-05-08 18:32 | 38.78472 | -76.12694 | 8005 ft | 254 kts | 302° |
| 2026-05-08 18:32 | 38.79440 | -76.14574 | 7606 ft | 253 kts | 301° |
| 2026-05-08 18:32 | 38.80392 | -76.16482 | 7162 ft | 254 kts | 301° |
| 2026-05-08 18:32 | 38.81338 | -76.18387 | 6764 ft | 254 kts | 301° |
| 2026-05-08 18:33 | 38.82288 | -76.20293 | 6350 ft | 254 kts | 301° |
| 2026-05-08 18:33 | 38.83239 | -76.22202 | 5911 ft | 255 kts | 301° |
| 2026-05-08 18:33 | 38.84183 | -76.24092 | 5546 ft | 253 kts | 301° |
| 2026-05-08 18:33 | 38.85137 | -76.26006 | 5154 ft | 252 kts | 301° |
| 2026-05-08 18:34 | 38.86066 | -76.27869 | 4805 ft | 250 kts | 301° |
| 2026-05-08 18:34 | 38.86997 | -76.29736 | 4402 ft | 250 kts | 302° |
| 2026-05-08 18:34 | 38.87980 | -76.31596 | 4076 ft | 247 kts | 303° |
| 2026-05-08 18:34 | 38.88967 | -76.33369 | 4022 ft | 249 kts | 304° |
| 2026-05-08 18:35 | 38.89973 | -76.35180 | 4013 ft | 249 kts | 304° |
| 2026-05-08 18:35 | 38.90968 | -76.36983 | 4006 ft | 248 kts | 304° |
| 2026-05-08 18:35 | 38.91973 | -76.38804 | 4006 ft | 249 kts | 303° |
| 2026-05-08 18:35 | 38.92964 | -76.40604 | 3773 ft | 244 kts | 303° |
| 2026-05-08 18:36 | 38.93940 | -76.42382 | 3279 ft | 248 kts | 303° |
| 2026-05-08 18:36 | 38.94946 | -76.44177 | 3014 ft | 243 kts | 306° |
| 2026-05-08 18:36 | 38.96014 | -76.45844 | 3000 ft | 246 kts | 309° |
| 2026-05-08 18:36 | 38.97167 | -76.47461 | 2993 ft | 245 kts | 311° |
| 2026-05-08 18:37 | 38.98342 | -76.49081 | 2996 ft | 247 kts | 310° |
| 2026-05-08 18:37 | 38.99497 | -76.50705 | 2997 ft | 248 kts | 310° |
| 2026-05-08 18:37 | 39.00658 | -76.52333 | 2997 ft | 247 kts | 310° |
| 2026-05-08 18:37 | 39.01886 | -76.53934 | 2995 ft | 248 kts | 316° |
| 2026-05-08 18:38 | 39.03246 | -76.55177 | 2995 ft | 234 kts | 326° |
| 2026-05-08 18:38 | 39.04602 | -76.56219 | 2876 ft | 223 kts | 326° |
| 2026-05-08 18:38 | 39.05883 | -76.57214 | 2610 ft | 206 kts | 325° |
| 2026-05-08 18:38 | 39.07057 | -76.58146 | 2346 ft | 191 kts | 324° |
| 2026-05-08 18:39 | 39.08141 | -76.59020 | 2109 ft | 176 kts | 323° |
| 2026-05-08 18:39 | 39.09132 | -76.59830 | 1876 ft | 163 kts | 322° |
| 2026-05-08 18:39 | 39.10090 | -76.60509 | 1668 ft | 152 kts | 332° |
| 2026-05-08 18:39 | 39.10975 | -76.61149 | 1482 ft | 137 kts | 317° |
| 2026-05-08 18:40 | 39.11710 | -76.61924 | 1295 ft | 140 kts | 318° |
| 2026-05-08 18:40 | 39.12518 | -76.62588 | 1116 ft | 138 kts | 322° |
| 2026-05-08 18:40 | 39.13259 | -76.63317 | 931 ft | 137 kts | 315° |
| 2026-05-08 18:40 | 39.14036 | -76.64050 | 742 ft | 138 kts | 326° |
| 2026-05-08 18:41 | 39.14848 | -76.64721 | 558 ft | 138 kts | 317° |
| 2026-05-08 18:41 | 39.15614 | -76.65466 | 432 ft | 140 kts | 320° |
| 2026-05-08 18:41 | 39.16430 | -76.66244 | 174 ft | 148 kts | 318° |
| 2026-05-08 18:41 | 39.17189 | -76.66964 | 146 ft | 119 kts | 321° |
| 2026-05-08 18:42 | 39.17677 | -76.67407 | 138 ft | 47 kts | 327° |
| 2026-05-08 18:42 | 39.17844 | -76.67429 | 138 ft | 11 kts | 70° |
| 2026-05-08 18:42 | 39.17845 | -76.67418 | 138 ft | 0 kts | 82° |
| 2026-05-08 18:42 | 39.17845 | -76.67406 | 138 ft | 0 kts | 95° |
| 2026-05-08 18:44 | 39.17845 | -76.67403 | 138 ft | 1 kts | 100° |
| 2026-05-08 18:45 | 39.17800 | -76.67338 | 140 ft | 19 kts | 145° |
| 2026-05-08 18:45 | 39.17633 | -76.67189 | 142 ft | 35 kts | 145° |
| 2026-05-08 18:45 | 39.17481 | -76.66971 | 146 ft | 32 kts | 103° |
| 2026-05-08 18:45 | 39.17533 | -76.66805 | 146 ft | 11 kts | 39° |
| 2026-05-08 18:46 | 39.17591 | -76.66773 | 147 ft | 0 kts | 2° |
| 2026-05-08 18:46 | 39.17612 | -76.66772 | 147 ft | 12 kts | 359° |
| 2026-05-08 18:46 | 39.17719 | -76.66827 | 149 ft | 10 kts | 324° |
| 2026-05-08 18:46 | 39.17706 | -76.66914 | 148 ft | 15 kts | 235° |
| 2026-05-08 18:47 | 39.17698 | -76.66929 | 148 ft | 0 kts | 236° |